Time;durP1;ratioP1;P1;durP2;ratioP2;P2;SDS_P1;SDS_P2;PMS_P1;PMS_P2;Temp;Humidity;BMP_temperature;BMP_pressure;BME280_temperature;BME280_humidity;BME280_pressure;Samples;Min_cycle;Max_cycle;Signal;HPM_P1;HPM_P2
2022/04/26 03:37:17;;;;;;;10.88;9.73;;;;;;;7.57;85.64;100408.28;5031384;28;20053;-68
2022/04/26 03:40:20;;;;;;;10.20;9.20;;;;;;;7.73;86.64;100402.44;5030493;28;20103;-68
2022/04/26 03:43:23;;;;;;;;;;;;;;;7.90;86.02;100407.75;5031232;28;20052;-68
2022/04/26 03:46:27;;;;;;;11.02;9.45;;;;;;;7.92;86.21;100403.34;5030605;28;19979;-68
2022/04/26 03:49:30;;;;;;;13.40;10.20;;;;;;;7.80;86.45;100401.25;5030556;28;20057;-68
2022/04/26 03:52:34;;;;;;;11.23;9.80;;;;;;;7.79;86.17;100402.16;5030621;28;20419;-68
2022/04/26 03:55:37;;;;;;;;;;;;;;;8.18;85.41;100403.94;5030663;28;20095;-68
2022/04/26 03:58:41;;;;;;;11.18;9.98;;;;;;;8.38;84.22;100401.31;5029331;28;20288;-68
2022/04/26 04:01:45;;;;;;;10.85;9.75;;;;;;;8.50;83.65;100398.16;5036790;28;20103;-67
2022/04/26 04:04:49;;;;;;;10.43;9.38;;;;;;;8.54;83.90;100399.69;5030659;28;20049;-68
2022/04/26 04:07:52;;;;;;;11.88;10.35;;;;;;;8.57;83.18;100398.72;5030343;28;20047;-68
2022/04/26 04:10:56;;;;;;;12.38;10.82;;;;;;;8.45;84.18;100394.06;5029392;28;20056;-68
2022/04/26 04:14:00;;;;;;;10.90;9.70;;;;;;;8.50;84.05;100395.56;5033199;28;20071;-68
2022/04/26 04:17:06;;;;;;;11.88;10.68;;;;;;;8.59;83.36;100389.94;5024714;28;20044;-68
2022/04/26 04:20:11;;;;;;;15.38;10.70;;;;;;;8.54;83.96;100389.28;5024109;28;20048;-68
2022/04/26 04:23:15;;;;;;;12.48;10.82;;;;;;;8.68;83.39;100390.41;5025517;28;20420;-68
2022/04/26 04:26:19;;;;;;;13.35;10.45;;;;;;;8.73;82.96;100396.25;5026449;28;20089;-68
2022/04/26 04:29:22;;;;;;;12.40;11.10;;;;;;;8.73;82.86;100398.84;5050371;28;20086;-68
2022/04/26 04:32:25;;;;;;;15.20;10.73;;;;;;;8.81;82.95;100397.59;5065557;28;20043;-68
2022/04/26 04:35:29;;;;;;;15.10;13.60;;;;;;;8.70;83.47;100401.59;4692619;28;9999867;-69
2022/04/26 04:38:32;;;;;;;16.05;12.20;;;;;;;8.55;84.49;100408.38;5027048;28;20203;-68
2022/04/26 04:41:36;;;;;;;13.93;12.40;;;;;;;8.51;85.05;100410.25;5034576;28;20515;-68
2022/04/26 04:44:40;;;;;;;13.35;11.95;;;;;;;8.47;85.21;100413.09;5028874;28;20091;-68
2022/04/26 04:47:44;;;;;;;14.15;12.63;;;;;;;8.45;85.44;100425.34;5029457;28;20582;-68
2022/04/26 04:50:48;;;;;;;14.50;11.70;;;;;;;8.51;85.45;100425.06;5028488;28;20045;-68
2022/04/26 04:53:52;;;;;;;13.90;11.95;;;;;;;8.42;85.43;100423.72;5028138;28;20051;-69
2022/04/26 04:56:55;;;;;;;12.55;11.20;;;;;;;8.38;85.18;100430.81;5033737;28;20068;-69
2022/04/26 05:00:00;;;;;;;13.68;12.27;;;;;;;8.53;84.77;100429.28;5034075;28;20117;-68
2022/04/26 05:03:04;;;;;;;12.57;11.25;;;;;;;8.52;85.07;100432.81;5048262;28;20075;-68
2022/04/26 05:06:08;;;;;;;15.05;10.65;;;;;;;8.64;84.40;100435.78;5043406;28;20044;-68
2022/04/26 05:09:14;;;;;;;13.07;11.68;;;;;;;8.68;84.06;100429.50;5037294;28;20041;-68
2022/04/26 05:12:19;;;;;;;15.52;11.95;;;;;;;8.69;84.11;100429.44;5041419;28;20091;-68
2022/04/26 05:15:25;;;;;;;12.75;11.30;;;;;;;8.73;83.96;100432.75;5048104;28;20044;-68
2022/04/26 05:18:31;;;;;;;13.45;11.50;;;;;;;8.87;84.24;100438.19;5047817;28;20051;-69
2022/04/26 05:21:36;;;;;;;13.18;11.43;;;;;;;8.83;84.24;100442.66;5033243;28;20566;-68
2022/04/26 05:24:54;;;;;;;13.18;11.77;;;;;;;8.70;84.80;100451.13;5026592;28;20064;-68
2022/04/26 05:27:58;;;;;;;17.20;12.13;;;;;;;8.55;85.28;100445.72;5028100;28;20518;-69
2022/04/26 05:31:01;;;;;;;15.15;12.35;;;;;;;8.48;85.55;100441.66;5028297;28;20413;-68
2022/04/26 05:34:05;;;;;;;16.35;11.77;;;;;;;8.73;85.11;100445.78;5028298;28;20167;-68
2022/04/26 05:37:08;;;;;;;12.93;11.10;;;;;;;8.65;84.70;100453.97;5028119;28;20333;-68
2022/04/26 05:40:12;;;;;;;15.45;12.23;;;;;;;8.81;84.57;100443.69;5045865;28;20051;-68
2022/04/26 05:43:15;;;;;;;12.70;11.25;;;;;;;8.89;84.27;100441.53;5047507;28;20048;-71
2022/04/26 05:46:19;;;;;;;;;;;;;;;8.77;85.33;100442.09;5047893;28;20044;-71
2022/04/26 05:49:22;;;;;;;13.02;11.63;;;;;;;8.66;86.05;100447.00;5047907;28;19919;-71
2022/04/26 05:52:26;;;;;;;14.32;11.60;;;;;;;8.77;85.66;100436.91;5036777;28;20041;-71
2022/04/26 05:55:31;;;;;;;13.38;11.77;;;;;;;8.72;86.38;100451.91;5028019;28;20408;-71
2022/04/26 05:58:34;;;;;;;15.90;13.30;;;;;;;8.74;86.41;100452.69;5027421;28;20196;-71
2022/04/26 06:01:38;;;;;;;14.15;12.50;;;;;;;8.71;86.39;100447.59;5027375;28;20243;-71
2022/04/26 06:04:42;;;;;;;16.50;13.05;;;;;;;8.67;86.41;100448.66;5026937;28;20099;-71
2022/04/26 06:07:46;;;;;;;18.30;12.57;;;;;;;8.63;86.81;100453.19;5064609;28;20052;-71
2022/04/26 06:10:50;;;;;;;16.48;12.68;;;;;;;8.67;86.35;100448.66;5028014;28;20080;-71
2022/04/26 06:13:53;;;;;;;;;;;;;;;8.80;85.26;100444.56;5028734;28;20471;-71
2022/04/26 06:16:56;;;;;;;14.43;12.82;;;;;;;8.71;86.28;100450.22;5030768;28;19971;-71
2022/04/26 06:20:00;;;;;;;18.65;16.42;;;;;;;8.83;86.13;100452.25;5030329;28;20448;-71
2022/04/26 06:23:03;;;;;;;18.85;16.95;;;;;;;9.01;85.01;100458.41;5030399;28;20291;-71
2022/04/26 06:26:07;;;;;;;17.02;15.00;;;;;;;9.07;84.46;100451.13;5019713;28;20091;-71
2022/04/26 06:29:11;;;;;;;15.70;14.10;;;;;;;9.07;84.48;100461.56;5032040;28;20056;-70
2022/04/26 06:32:14;;;;;;;17.58;14.68;;;;;;;9.01;85.39;100461.00;5031957;28;20053;-70
2022/04/26 06:35:18;;;;;;;16.10;14.38;;;;;;;8.98;85.85;100459.38;5033670;28;20044;-69
2022/04/26 06:38:22;;;;;;;16.90;13.13;;;;;;;9.04;85.14;100451.25;5042567;28;20047;-70
2022/04/26 06:41:25;;;;;;;18.08;14.35;;;;;;;9.00;85.86;100464.53;5054967;28;20075;-71
2022/04/26 06:44:29;;;;;;;18.25;15.18;;;;;;;9.00;85.71;100457.56;5043297;28;20075;-71
2022/04/26 06:47:32;;;;;;;;;;;;;;;9.03;86.34;100457.41;5055829;28;20052;-71
2022/04/26 06:50:36;;;;;;;17.60;14.60;;;;;;;9.04;85.99;100451.25;5055199;28;19936;-71
2022/04/26 06:53:40;;;;;;;18.88;15.60;;;;;;;9.11;85.80;100453.59;5049929;28;20051;-71
2022/04/26 06:56:46;;;;;;;72.82;50.50;;;;;;;9.20;84.95;100453.16;5045221;28;20495;-71
2022/04/26 06:59:53;;;;;;;23.10;18.98;;;;;;;9.28;84.20;100466.66;5049841;28;20325;-71
2022/04/26 07:02:58;;;;;;;16.27;13.25;;;;;;;9.20;84.02;100456.59;5052361;28;20532;-71
2022/04/26 07:06:02;;;;;;;16.38;14.27;;;;;;;9.16;84.13;100455.06;5041439;28;20055;-71
2022/04/26 07:09:06;;;;;;;16.50;14.75;;;;;;;9.37;83.81;100457.56;5051351;28;20098;-71
2022/04/26 07:12:09;;;;;;;17.55;15.25;;;;;;;9.26;84.52;100463.31;5062934;28;20103;-71
2022/04/26 07:15:13;;;;;;;18.48;15.45;;;;;;;9.22;85.33;100464.34;5050174;28;20136;-71
2022/04/26 07:18:16;;;;;;;16.90;14.25;;;;;;;9.21;85.76;100465.28;5064738;23;20163;-70
2022/04/26 07:21:20;;;;;;;16.27;14.55;;;;;;;9.21;85.30;100470.50;5046886;28;20055;-74
2022/04/26 07:24:23;;;;;;;;;;;;;;;9.23;85.22;100468.66;5034740;28;20071;-73
2022/04/26 07:27:32;;;;;;;17.90;14.82;;;;;;;9.34;84.64;100484.63;5050082;28;20085;-74
2022/04/26 07:31:11;;;;;;;16.40;14.55;;;;;;;9.28;85.24;100482.31;5053611;28;20516;-75
2022/04/26 07:34:20;;;;;;;16.50;13.63;;;;;;;9.13;85.70;100483.06;5052993;28;20071;-81
2022/04/26 07:37:23;;;;;;;16.67;14.70;;;;;;;9.12;85.64;100489.19;5052744;28;20413;-67
2022/04/26 07:40:28;;;;;;;16.63;14.65;;;;;;;9.08;85.42;100485.88;5053944;28;20047;-67
2022/04/26 07:43:31;;;;;;;16.50;14.73;;;;;;;9.08;85.45;100494.53;5054063;28;20051;-67
2022/04/26 07:46:34;;;;;;;15.18;13.65;;;;;;;9.12;85.04;100494.41;5053063;28;20116;-67
2022/04/26 07:49:38;;;;;;;18.15;15.35;;;;;;;9.18;85.04;100499.34;5053742;28;20510;-68
2022/04/26 07:52:41;;;;;;;15.63;13.73;;;;;;;9.17;85.32;100498.50;5053770;28;20055;-67
2022/04/26 07:55:44;;;;;;;18.13;16.23;;;;;;;9.27;85.77;100501.50;5053685;28;20044;-70
2022/04/26 07:58:48;;;;;;;;;;;;;;;9.41;85.18;100512.16;5054175;28;20461;-65
2022/04/26 08:01:50;;;;;;;17.30;15.50;;;;;;;9.47;84.96;100517.06;5053678;28;20294;-67
2022/04/26 08:05:00;;;;;;;17.58;14.80;;;;;;;9.48;84.62;100521.38;5048669;28;20282;-68
2022/04/26 08:08:03;;;;;;;15.32;13.73;;;;;;;9.44;85.37;100530.25;5048922;28;20151;-68
2022/04/26 08:11:11;;;;;;;18.05;13.57;;;;;;;9.51;85.33;100526.44;5049971;28;20070;-68
2022/04/26 08:14:15;;;;;;;14.82;13.25;;;;;;;9.46;85.44;100535.41;5048395;28;20098;-66
2022/04/26 08:17:18;;;;;;;14.57;13.07;;;;;;;9.52;84.65;100543.78;5049299;28;20105;-67
2022/04/26 08:20:24;;;;;;;;;;;;;;;9.54;84.99;100535.91;5048939;28;20098;-67
2022/04/26 08:23:27;;;;;;;15.77;14.07;;;;;;;9.53;87.05;100547.25;5066739;28;19919;-65
2022/04/26 08:29:55;;;;;;;17.55;14.85;;;;;;;9.40;87.42;100551.34;5028859;28;20063;-67
2022/04/26 08:32:58;;;;;;;16.35;13.75;;;;;;;9.35;87.59;100566.38;5029948;28;20640;-67
2022/04/26 08:36:03;;;;;;;18.08;15.02;;;;;;;9.34;86.75;100562.09;5028990;28;20044;-65
2022/04/26 08:39:06;;;;;;;15.85;14.15;;;;;;;9.54;86.45;100575.06;5031320;28;20090;-67
2022/04/26 08:42:09;;;;;;;19.52;14.98;;;;;;;9.67;86.11;100570.09;5032356;28;20573;-70
2022/04/26 08:45:15;;;;;;;18.63;16.55;;;;;;;9.69;86.19;100576.06;5032459;28;20049;-68
2022/04/26 08:51:41;;;;;;;19.73;15.90;;;;;;;9.71;85.45;100585.53;5032551;28;20068;-71
2022/04/26 08:54:44;;;;;;;15.43;13.60;;;;;;;9.64;85.75;100585.91;5032373;28;20103;-71
2022/04/26 08:57:48;;;;;;;14.93;13.25;;;;;;;9.57;86.24;100589.72;5032470;28;20067;-72
2022/04/26 09:01:15;;;;;;;15.15;12.20;;;;;;;9.68;86.28;100590.06;5032103;28;20152;-72
2022/04/26 09:04:19;;;;;;;14.43;11.63;;;;;;;9.68;86.00;100603.13;5032279;28;20564;-72
2022/04/26 09:07:29;;;;;;;;;;;;;;;9.68;85.64;100598.72;5041661;28;20047;-73
2022/04/26 09:10:32;;;;;;;15.32;11.57;;;;;;;9.71;85.39;100619.47;5039735;28;19923;-73
2022/04/26 09:13:40;;;;;;;10.90;9.70;;;;;;;9.74;85.75;100624.56;5052178;28;20452;-72
2022/04/26 09:16:44;;;;;;;11.70;9.27;;;;;;;9.81;85.82;100630.34;5051851;28;20043;-72
2022/04/26 09:19:53;;;;;;;14.13;12.60;;;;;;;9.75;86.73;100625.41;5051699;28;20513;-72
2022/04/26 09:23:00;;;;;;;16.95;14.00;;;;;;;9.65;87.80;100621.53;5051558;28;20071;-70
2022/04/26 09:26:07;;;;;;;15.68;12.55;;;;;;;9.66;86.97;100631.06;5051591;28;20517;-71
2022/04/26 09:29:19;;;;;;;17.45;12.52;;;;;;;9.70;86.64;100629.97;5051850;28;20122;-70
2022/04/26 09:32:25;;;;;;;12.02;10.32;;;;;;;9.91;86.11;100630.75;5051691;28;20413;-72
2022/04/26 09:35:29;;;;;;;11.48;10.02;;;;;;;9.87;85.11;100637.03;5051540;28;20044;-71
2022/04/26 09:38:33;;;;;;;15.10;9.50;;;;;;;9.82;83.79;100637.25;5031981;28;20044;-71
2022/04/26 09:41:38;;;;;;;11.43;10.23;;;;;;;9.82;84.73;100642.47;5032016;28;20110;-70
2022/04/26 09:44:42;;;;;;;15.63;14.02;;;;;;;9.37;86.64;100642.84;5031977;28;20085;-70
2022/04/26 09:47:45;;;;;;;14.25;12.10;;;;;;;9.51;87.14;100649.13;5031944;28;20048;-72
2022/04/26 09:50:49;;;;;;;12.00;10.50;;;;;;;9.65;87.04;100639.81;5032107;28;20052;-71
2022/04/26 09:53:52;;;;;;;14.02;11.15;;;;;;;9.52;87.85;100649.97;5043925;28;20094;-71
2022/04/26 09:56:56;;;;;;;12.63;9.75;;;;;;;9.63;87.84;100642.47;5045716;28;20525;-71
2022/04/26 10:00:01;;;;;;;12.73;9.18;;;;;;;9.38;89.84;100652.34;5031501;28;20438;-71
2022/04/26 10:03:15;;;;;;;;;;;;;;;9.64;88.20;100654.63;5031879;28;20083;-70
2022/04/26 10:06:19;;;;;;;11.90;9.48;;;;;;;9.64;87.57;100654.63;5035833;28;19923;-72
2022/04/26 10:09:24;;;;;;;11.25;8.52;;;;;;;9.75;87.47;100648.91;5053342;28;20047;-71
2022/04/26 10:12:28;;;;;;;10.13;9.02;;;;;;;10.05;86.86;100653.59;5057936;28;20040;-70
2022/04/26 10:15:31;;;;;;;9.30;7.30;;;;;;;10.05;85.99;100649.22;5057839;28;20167;-70
2022/04/26 10:18:44;;;;;;;7.80;6.40;;;;;;;10.17;84.96;100653.84;5057619;28;20468;-70
2022/04/26 10:21:47;;;;;;;7.20;5.97;;;;;;;10.30;84.08;100654.13;5057753;28;20162;-72
2022/04/26 10:25:09;;;;;;;;;;;;;;;9.98;85.19;100661.72;5058260;28;20706;-71
2022/04/26 10:28:23;;;;;;;8.77;6.05;;;;;;;9.66;87.76;100651.94;5057787;28;19963;-71
2022/04/26 10:31:36;;;;;;;7.85;5.68;;;;;;;9.78;86.23;100667.88;5057686;28;20110;-71
2022/04/26 10:34:41;;;;;;;7.53;5.78;;;;;;;9.73;87.07;100655.94;5057678;28;20043;-71
2022/04/26 10:37:48;;;;;;;7.30;6.00;;;;;;;9.82;86.85;100660.75;5045133;28;20120;-72
2022/04/26 10:41:03;;;;;;;9.27;5.93;;;;;;;9.72;87.04;100665.56;5057528;28;20066;-71
2022/04/26 10:44:12;;;;;;;9.23;4.75;;;;;;;9.95;85.68;100667.06;5057573;28;20056;-72
2022/04/26 10:47:18;;;;;;;4.88;2.75;;;;;;;9.69;85.89;100676.13;5057786;28;20071;-71
2022/04/26 10:50:32;;;;;;;5.22;2.90;;;;;;;9.84;84.76;100673.75;5057435;28;20090;-71
2022/04/26 10:53:45;;;;;;;3.90;2.67;;;;;;;9.86;85.13;100671.88;5057477;28;20191;-72
2022/04/26 10:56:49;;;;;;;4.10;2.50;;;;;;;9.53;86.43;100681.22;5057523;28;20102;-73
2022/04/26 10:59:56;;;;;;;4.43;2.45;;;;;;;9.50;87.43;100683.97;5057751;28;20529;-72
2022/04/26 11:03:03;;;;;;;3.40;2.50;;;;;;;9.44;86.63;100686.00;5057517;28;20133;-71
2022/04/26 11:06:07;;;;;;;3.33;2.10;;;;;;;9.43;86.97;100687.78;5056319;28;20461;-73
2022/04/26 11:09:14;;;;;;;4.18;2.67;;;;;;;9.68;86.29;100694.50;5057525;28;20064;-71
2022/04/26 11:12:22;;;;;;;4.07;2.03;;;;;;;9.42;86.19;100691.31;5057753;28;20127;-71
2022/04/26 11:15:25;;;;;;;2.95;1.90;;;;;;;9.51;86.92;100695.28;5057395;28;20147;-71
2022/04/26 11:18:33;;;;;;;3.13;1.98;;;;;;;9.69;86.08;100702.25;5056885;28;20056;-72
2022/04/26 11:21:36;;;;;;;3.15;1.48;;;;;;;9.88;86.05;100698.78;5053941;28;20138;-72
2022/04/26 11:28:06;;;;;;;4.32;1.63;;;;;;;10.25;84.38;100713.59;5054341;28;20059;-74
2022/04/26 11:31:10;;;;;;;3.83;2.75;;;;;;;10.24;83.51;100714.50;5054182;28;20098;-72
2022/04/26 11:34:13;;;;;;;5.05;1.90;;;;;;;10.36;83.64;100719.16;5052145;28;20056;-71
2022/04/26 11:37:16;;;;;;;;;;;;;;;10.46;83.72;100733.50;5052644;28;20402;-73
2022/04/26 11:40:26;;;;;;;6.25;2.20;;;;;;;10.31;83.48;100744.69;5053634;28;20281;-71
2022/04/26 11:43:31;;;;;;;6.13;4.40;;;;;;;10.19;82.03;100746.09;5053506;28;20052;-70
2022/04/26 11:46:35;;;;;;;12.73;8.25;;;;;;;10.09;82.54;100760.50;5053598;28;20476;-71
2022/04/26 11:49:40;;;;;;;11.75;3.30;;;;;;;9.99;83.62;100756.63;5054050;28;20052;-71
2022/04/26 11:52:45;;;;;;;4.90;3.17;;;;;;;9.91;80.65;100770.03;5053454;28;20051;-77
2022/04/26 11:55:56;;;;;;;3.88;2.47;;;;;;;9.95;80.65;100771.56;5053426;28;20095;-74
2022/04/26 11:59:00;;;;;;;5.75;1.83;;;;;;;9.83;79.85;100773.88;5053783;28;20068;-73
2022/04/26 12:02:04;;;;;;;4.03;2.30;;;;;;;9.90;80.08;100777.94;5053540;28;20110;-72
2022/04/26 12:05:08;;;;;;;3.88;1.73;;;;;;;9.88;80.18;100788.44;5052778;28;20122;-71
2022/04/26 12:08:12;;;;;;;2.72;1.63;;;;;;;9.98;79.51;100794.09;5053620;28;20048;-65
2022/04/26 12:11:18;;;;;;;3.25;1.90;;;;;;;10.00;79.65;100790.50;5053531;28;20465;-65
2022/04/26 12:14:22;;;;;;;5.05;1.92;;;;;;;9.90;78.72;100797.06;5053465;28;20122;-71
2022/04/26 12:17:29;;;;;;;3.28;1.85;;;;;;;10.05;78.60;100800.75;5053372;28;20114;-72
2022/04/26 12:20:35;;;;;;;5.38;2.28;;;;;;;10.07;78.69;100808.50;5053292;28;20094;-69
2022/04/26 12:23:38;;;;;;;3.10;1.85;;;;;;;10.02;78.90;100811.34;5053360;28;20458;-71
2022/04/26 12:27:02;;;;;;;6.13;2.17;;;;;;;9.85;79.63;100814.69;5053226;28;20044;-66
2022/04/26 12:30:09;;;;;;;;;;;;;;;10.01;79.69;100817.47;5053627;28;20550;-69
2022/04/26 12:33:31;;;;;;;3.17;2.15;;;;;;;9.81;78.27;100814.91;5052757;28;19967;-72
2022/04/26 12:37:02;;;;;;;4.43;2.85;;;;;;;9.77;79.77;100822.03;5052115;28;20040;-71
2022/04/26 12:40:09;;;;;;;6.47;2.80;;;;;;;9.77;78.82;100822.88;5052877;28;20135;-71
2022/04/26 12:43:26;;;;;;;5.40;2.53;;;;;;;9.69;81.40;100818.91;5053277;28;20051;-74
2022/04/26 12:46:44;;;;;;;6.40;2.55;;;;;;;9.53;79.57;100824.78;5053025;28;20444;-74
2022/04/26 12:53:23;;;;;;;5.13;3.07;;;;;;;9.66;79.79;100825.09;5052758;28;20095;-73
2022/04/26 12:56:26;;;;;;;4.85;2.92;;;;;;;9.57;79.90;100827.25;5052995;28;20040;-72
2022/04/26 12:59:34;;;;;;;;;;;;;;;9.65;80.59;100826.03;5053242;28;20461;-70
2022/04/26 13:02:38;;;;;;;3.97;3.03;;;;;;;9.55;81.15;100822.13;5052948;28;20420;-71
2022/04/26 13:05:44;;;;;;;6.18;4.47;;;;;;;9.49;81.05;100820.63;5052105;28;20059;-69
2022/04/26 13:08:48;;;;;;;5.63;3.65;;;;;;;9.32;80.86;100830.94;5052515;28;20098;-74
2022/04/26 13:11:53;;;;;;;5.80;4.60;;;;;;;9.22;81.24;100829.59;5052572;28;20072;-73
2022/04/26 13:14:56;;;;;;;7.20;5.43;;;;;;;9.26;83.10;100825.97;5051404;28;20102;-73
2022/04/26 13:18:00;;;;;;;5.45;4.72;;;;;;;9.63;83.07;100833.06;5037987;28;20036;-74
2022/04/26 13:21:05;;;;;;;7.97;4.25;;;;;;;9.74;82.27;100832.63;5012263;28;20103;-73
2022/04/26 13:24:10;;;;;;;6.47;3.88;;;;;;;9.60;83.21;100829.75;5011161;28;20128;-75
2022/04/26 13:27:14;;;;;;;5.78;4.65;;;;;;;9.64;82.39;100823.50;5011746;28;20048;-73
2022/04/26 13:30:17;;;;;;;;;;;;;;;9.71;80.82;100820.53;5012301;28;20104;-75
2022/04/26 13:33:20;;;;;;;9.00;4.47;;;;;;;9.79;79.96;100825.41;5012004;28;19920;-74
2022/04/26 13:36:27;;;;;;;6.78;3.97;;;;;;;10.13;79.63;100821.28;4985591;28;20424;-73
2022/04/26 13:39:31;;;;;;;4.63;3.35;;;;;;;10.00;81.20;100823.63;4992192;28;20082;-72
2022/04/26 13:42:38;;;;;;;;;;;;;;;10.09;79.22;100823.22;4992605;28;20571;-74
2022/04/26 13:45:42;;;;;;;6.72;3.20;;;;;;;10.29;77.87;100824.09;4979753;28;19920;-74
2022/04/26 13:48:47;;;;;;;;;;;;;;;10.31;75.69;100815.25;4991983;28;20049;-70
2022/04/26 13:51:51;;;;;;;4.97;3.22;;;;;;;10.20;77.97;100820.09;4999614;28;19976;-66
2022/04/26 13:54:54;;;;;;;5.72;3.50;;;;;;;9.97;79.31;100823.75;5002476;28;20049;-68
2022/04/26 13:57:58;;;;;;;4.40;3.20;;;;;;;10.01;80.35;100822.69;5008527;28;20101;-68
2022/04/26 14:01:01;;;;;;;5.50;4.28;;;;;;;10.15;80.46;100827.31;5008077;28;20045;-67
2022/04/26 14:04:04;;;;;;;;;;;;;;;10.09;77.59;100820.59;5008119;28;20044;-68
2022/04/26 14:07:08;;;;;;;4.22;3.20;;;;;;;9.68;80.70;100818.06;5027677;28;19923;-67
2022/04/26 14:10:13;;;;;;;4.47;3.00;;;;;;;9.97;79.83;100819.38;4988897;28;20061;-67
2022/04/26 14:13:16;;;;;;;6.38;4.20;;;;;;;10.45;78.82;100820.69;4988722;28;20049;-67
2022/04/26 14:23:03;;;;;;;4.70;3.10;;;;;;;10.99;77.46;100819.88;5028003;28;20044;-68
2022/04/26 14:26:07;;;;;;;5.55;2.90;;;;;;;11.02;75.29;100819.72;5027780;28;20513;-68
2022/04/26 14:29:11;;;;;;;5.95;3.17;;;;;;;11.19;76.22;100817.09;5028338;28;20044;-67
2022/04/26 14:32:13;;;;;;;;;;;;;;;11.00;76.68;100821.56;5029053;28;20041;-67
2022/04/26 14:35:17;;;;;;;5.45;3.20;;;;;;;10.96;78.30;100827.88;5030745;28;19984;-69
2022/04/26 14:38:20;;;;;;;5.90;3.20;;;;;;;11.11;77.70;100821.91;5030059;28;20044;-69
2022/04/26 14:41:25;;;;;;;5.32;3.55;;;;;;;11.23;76.79;100834.38;5031293;28;20048;-72
2022/04/26 14:44:29;;;;;;;4.53;2.80;;;;;;;11.43;74.45;100822.88;5031466;28;20095;-70
2022/04/26 14:47:33;;;;;;;4.30;3.28;;;;;;;11.92;73.39;100822.13;5031388;28;20530;-71
2022/04/26 14:50:39;;;;;;;6.30;3.15;;;;;;;12.10;73.16;100831.63;5031564;28;20140;-70
2022/04/26 14:53:42;;;;;;;4.80;3.05;;;;;;;12.44;72.28;100835.03;5031614;28;20088;-72
2022/04/26 14:56:50;;;;;;;4.75;2.92;;;;;;;12.01;73.24;100830.34;5014767;28;20117;-66
2022/04/26 14:59:53;;;;;;;4.03;2.75;;;;;;;11.80;74.26;100831.44;5015085;28;20053;-69
2022/04/26 15:02:57;;;;;;;5.13;2.78;;;;;;;11.61;73.16;100834.16;5014166;28;20052;-69
2022/04/26 15:06:00;;;;;;;4.47;2.75;;;;;;;11.66;73.03;100823.47;5028980;28;20044;-73
2022/04/26 15:19:13;;;;;;;8.32;3.30;;;;;;;11.15;77.36;100833.91;5009876;28;20274;-73
2022/04/26 15:22:18;;;;;;;7.47;3.50;;;;;;;11.10;79.35;100841.13;5019158;28;20123;-72
2022/04/26 15:25:22;;;;;;;4.90;3.45;;;;;;;11.06;78.03;100826.50;5018902;28;20568;-71
2022/04/26 15:29:17;;;;;;;6.63;3.47;;;;;;;11.09;78.78;100842.03;5030335;28;20073;-74
2022/04/26 15:32:23;;;;;;;7.20;3.30;;;;;;;11.05;77.24;100840.50;5031075;28;20048;-74
2022/04/26 15:35:52;;;;;;;6.55;3.75;;;;;;;10.98;77.62;100836.50;5030643;28;20072;-72
2022/04/26 15:39:07;;;;;;;5.50;3.28;;;;;;;10.88;79.29;100844.81;5031480;28;20051;-70
2022/04/26 15:42:14;;;;;;;6.50;3.38;;;;;;;11.08;79.23;100846.44;5018155;28;20450;-71
2022/04/26 15:45:42;;;;;;;6.15;3.97;;;;;;;11.16;77.53;100843.44;5017898;28;20051;-71
2022/04/26 15:48:49;;;;;;;8.77;4.18;;;;;;;11.01;77.91;100849.41;5017139;28;20053;-73
2022/04/26 15:52:15;;;;;;;5.28;4.47;;;;;;;10.78;79.73;100853.16;5015904;28;20108;-71
2022/04/26 15:55:26;;;;;;;5.35;4.53;;;;;;;10.22;82.09;100858.31;5010559;28;20087;-71
2022/04/26 15:58:34;;;;;;;7.78;5.40;;;;;;;10.42;81.10;100861.81;5028649;28;20045;-71
2022/04/26 16:01:41;;;;;;;12.25;5.40;;;;;;;10.56;80.55;100869.00;5031200;28;20048;-70
2022/04/26 16:04:47;;;;;;;8.60;4.72;;;;;;;10.29;82.36;100864.13;5029728;28;20458;-69
2022/04/26 16:07:51;;;;;;;9.57;6.93;;;;;;;10.27;81.47;100871.19;5030236;28;20048;-72
2022/04/26 16:22:08;;;;;;;7.07;5.05;;;;;;;10.29;80.85;100887.66;5022992;28;20118;-69
2022/04/26 16:25:12;;;;;;;10.30;4.70;;;;;;;10.31;80.83;100893.69;5029723;28;20052;-70
2022/04/26 16:28:19;;;;;;;6.18;4.68;;;;;;;10.27;80.65;100896.47;5029290;28;20041;-72
2022/04/26 16:31:30;;;;;;;6.53;5.43;;;;;;;10.22;81.43;100894.06;5018059;28;20140;-74
2022/04/26 16:34:46;;;;;;;10.60;7.63;;;;;;;10.26;82.20;100898.25;5029224;28;20076;-71
2022/04/26 16:37:51;;;;;;;7.13;5.68;;;;;;;10.02;83.98;100905.41;5012313;28;20107;-72
2022/04/26 16:41:04;;;;;;;7.80;4.72;;;;;;;10.04;82.49;100914.00;5009485;28;20121;-77
2022/04/26 16:44:08;;;;;;;11.35;5.40;;;;;;;10.12;82.51;100909.28;5009992;28;20049;-73
2022/04/26 16:47:12;;;;;;;7.70;5.53;;;;;;;10.11;82.91;100914.56;5009510;28;20064;-68
2022/04/26 16:50:27;;;;;;;5.82;4.35;;;;;;;10.07;83.59;100916.47;4997451;28;20491;-71
2022/04/26 16:53:30;;;;;;;6.45;4.55;;;;;;;10.05;83.18;100920.06;5028144;28;20071;-72
2022/04/26 16:56:35;;;;;;;7.28;4.32;;;;;;;10.07;83.45;100918.25;5009084;28;20407;-70
2022/04/26 16:59:38;;;;;;;6.60;5.20;;;;;;;9.95;83.90;100917.00;5009189;28;20045;-70
2022/04/26 17:02:42;;;;;;;9.35;5.07;;;;;;;10.05;84.22;100925.28;5009319;28;20052;-70
2022/04/26 17:06:11;;;;;;;6.00;5.40;;;;;;;9.92;84.82;100925.84;5009513;28;20206;-72
2022/04/26 17:09:16;;;;;;;7.65;4.93;;;;;;;9.88;85.06;100923.41;5007013;28;20668;-69
2022/04/26 17:12:20;;;;;;;6.35;5.15;;;;;;;9.93;84.61;100932.75;5028902;28;20079;-70
2022/04/26 17:15:23;;;;;;;6.53;5.20;;;;;;;10.01;85.02;100935.03;5016777;28;20404;-70
2022/04/26 17:18:27;;;;;;;7.75;5.13;;;;;;;9.96;84.60;100939.63;5028579;28;20552;-69
2022/04/26 17:21:32;;;;;;;;;;;;;;;9.96;84.41;100945.69;5029649;28;20080;-69
2022/04/26 17:27:59;;;;;;;7.20;5.43;;;;;;;9.85;85.47;100953.13;5027504;28;20048;-73
2022/04/26 17:31:05;;;;;;;8.95;5.35;;;;;;;9.85;86.25;100955.72;5028473;28;20103;-71
2022/04/26 17:34:08;;;;;;;7.28;4.97;;;;;;;9.82;86.28;100955.03;5028741;28;20457;-71
2022/04/26 17:37:14;;;;;;;6.18;4.53;;;;;;;9.99;85.75;100966.47;5030755;28;20040;-70
2022/04/26 17:40:19;;;;;;;9.23;4.97;;;;;;;10.02;85.44;100957.66;5031720;28;20107;-70
2022/04/26 17:43:23;;;;;;;11.73;5.10;;;;;;;9.84;86.23;100967.09;5031672;28;20052;-70
2022/04/26 17:46:26;;;;;;;6.93;5.20;;;;;;;9.73;86.50;100974.53;5032396;28;20060;-71
2022/04/26 17:49:31;;;;;;;6.30;5.30;;;;;;;9.68;86.77;100968.66;5032326;28;20099;-68
2022/04/26 17:56:54;;;;;;;6.22;5.60;;;;;;;9.80;86.65;100978.59;5031790;28;20072;-69
2022/04/26 17:59:57;;;;;;;7.10;5.50;;;;;;;9.59;87.68;100974.25;5010961;28;20111;-69
2022/04/26 18:03:26;;;;;;;8.18;6.22;;;;;;;9.75;87.26;100983.16;5012182;28;20496;-69
2022/04/26 18:06:55;;;;;;;10.00;6.63;;;;;;;9.69;86.98;100983.41;5012092;28;20065;-69
2022/04/26 18:09:58;;;;;;;;;;;;;;;9.70;86.95;100983.34;5012358;28;20071;-69
2022/04/26 18:13:12;;;;;;;9.18;6.55;;;;;;;9.66;87.19;100984.38;5010198;28;20298;-69
2022/04/26 18:16:15;;;;;;;6.50;5.80;;;;;;;9.43;88.14;100985.31;5011536;28;20040;-69
2022/04/26 18:19:18;;;;;;;6.38;5.32;;;;;;;9.52;88.05;100990.16;5018076;28;20485;-70
2022/04/26 18:22:22;;;;;;;8.10;5.82;;;;;;;9.55;87.79;100982.22;5031313;28;20056;-69
2022/04/26 18:28:55;;;;;;;10.27;9.27;;;;;;;9.65;86.98;100985.28;5031485;28;20055;-68
2022/04/26 18:32:00;;;;;;;10.38;8.95;;;;;;;9.45;87.98;100988.72;5034873;28;20419;-68
2022/04/26 18:35:03;;;;;;;8.20;6.35;;;;;;;9.52;87.84;100990.16;5035293;28;20067;-69
2022/04/26 18:38:06;;;;;;;;;;;;;;;9.69;87.33;101004.28;5032328;28;20040;-70
2022/04/26 18:41:09;;;;;;;8.43;6.15;;;;;;;9.80;86.75;100999.50;5035413;28;20405;-70
2022/04/26 18:44:13;;;;;;;7.32;5.95;;;;;;;9.63;87.18;101007.16;5035032;28;20076;-70
2022/04/26 18:47:17;;;;;;;11.30;6.28;;;;;;;9.55;87.25;101002.25;5034943;28;20071;-69
2022/04/26 18:50:20;;;;;;;;;;;;;;;9.46;87.83;101006.06;5035469;28;20088;-69
2022/04/26 18:53:24;;;;;;;7.28;6.10;;;;;;;9.48;87.85;101016.47;5034943;28;20453;-69
2022/04/26 18:56:27;;;;;;;9.30;6.18;;;;;;;9.40;88.23;101013.31;5034720;28;20036;-73
2022/04/26 18:59:31;;;;;;;7.80;6.38;;;;;;;9.43;88.39;101021.84;5034918;28;20083;-75